Time;durP1;ratioP1;P1;durP2;ratioP2;P2;SDS_P1;SDS_P2;PMS_P1;PMS_P2;Temp;Humidity;BMP_temperature;BMP_pressure;BME280_temperature;BME280_humidity;BME280_pressure;Samples;Min_cycle;Max_cycle;Signal;HPM_P1;HPM_P2
2022/04/16 00:00:22;;;;;;;7.03;5.93;;;;;;;7.00;100.00;97322.53;4842534;29;20815;-77
2022/04/16 00:02:49;;;;;;;8.10;7.40;;;;;;;7.16;100.00;97343.41;4847951;29;20952;-77
2022/04/16 00:05:16;;;;;;;6.17;5.57;;;;;;;7.04;100.00;97322.75;4851298;29;20474;-77
2022/04/16 00:07:42;;;;;;;7.77;6.00;;;;;;;7.13;100.00;97321.09;4843624;29;20556;-77
2022/04/16 00:10:09;;;;;;;6.90;5.83;;;;;;;6.89;100.00;97281.63;4842762;29;20515;-77
2022/04/16 00:12:36;;;;;;;7.20;6.50;;;;;;;7.27;100.00;97342.25;4842029;29;20454;-77
2022/04/16 00:15:05;;;;;;;6.57;5.67;;;;;;;6.95;100.00;97311.28;4824442;29;20502;-77
2022/04/16 00:17:31;;;;;;;7.80;6.90;;;;;;;6.91;100.00;97316.28;4844186;29;20468;-77
2022/04/16 00:19:58;;;;;;;7.27;6.57;;;;;;;6.95;100.00;97311.28;4843090;29;20458;-76
2022/04/16 00:22:24;;;;;;;7.03;6.33;;;;;;;6.83;100.00;97295.88;4843811;29;20512;-75
2022/04/16 00:24:51;;;;;;;8.57;6.80;;;;;;;7.27;100.00;97350.91;4844004;29;20484;-75
2022/04/16 00:27:18;;;;;;;8.10;6.50;;;;;;;7.11;100.00;97334.50;4844412;29;20549;-74
2022/04/16 00:29:46;;;;;;;6.70;5.50;;;;;;;6.78;100.00;97304.56;4842456;29;20449;-74
2022/04/16 00:32:12;;;;;;;8.80;7.83;;;;;;;6.86;100.00;97328.72;4842558;29;20470;-75
2022/04/16 00:34:39;;;;;;;7.17;6.57;;;;;;;6.83;100.00;97316.91;4843038;29;21014;-75
2022/04/16 00:37:05;;;;;;;8.33;7.00;;;;;;;7.10;100.00;97346.09;4844385;29;20512;-75
2022/04/16 00:39:32;;;;;;;8.37;6.80;;;;;;;6.66;100.00;97306.78;4828549;29;20523;-74
2022/04/16 00:42:00;;;;;;;9.53;6.70;;;;;;;6.50;100.00;97293.00;4843761;29;20558;-76
2022/04/16 00:44:27;;;;;;;7.27;6.63;;;;;;;6.77;100.00;97310.13;4842608;29;20941;-75
2022/04/16 00:46:53;;;;;;;7.97;7.17;;;;;;;6.77;100.00;97300.38;4843103;29;20560;-75
2022/04/16 00:49:20;;;;;;;7.67;6.10;;;;;;;6.97;100.00;97330.97;4842884;29;20446;-75
2022/04/16 00:51:48;;;;;;;9.37;7.13;;;;;;;6.84;100.00;97329.00;4843623;29;20456;-75
2022/04/16 00:54:15;;;;;;;9.83;8.83;;;;;;;6.65;100.00;97334.13;4826447;29;20454;-75
2022/04/16 00:56:42;;;;;;;8.93;7.97;;;;;;;6.73;100.00;97338.81;4844652;29;20505;-75
2022/04/16 00:59:09;;;;;;;9.07;7.87;;;;;;;6.76;100.00;97359.28;4842759;29;20444;-75
2022/04/16 01:01:35;;;;;;;8.73;7.83;;;;;;;6.35;100.00;97285.25;4842899;29;20998;-75
2022/04/16 01:04:02;;;;;;;8.13;7.37;;;;;;;6.71;100.00;97342.78;4843452;29;20445;-75
2022/04/16 01:06:40;;;;;;;12.43;7.83;;;;;;;6.97;100.00;97354.63;4842466;29;20892;-75
2022/04/16 01:09:06;;;;;;;9.50;7.70;;;;;;;6.71;100.00;97342.78;4842403;29;20464;-75
2022/04/16 01:11:33;;;;;;;8.73;7.77;;;;;;;6.80;100.00;97356.88;4844021;29;20473;-75
2022/04/16 01:14:00;;;;;;;11.10;8.60;;;;;;;6.86;100.00;97357.63;4827889;29;20446;-75
2022/04/16 01:16:31;;;;;;;12.90;7.60;;;;;;;6.72;100.00;97341.72;4842129;29;20498;-75
2022/04/16 01:18:58;;;;;;;11.13;7.90;;;;;;;6.82;100.00;97360.03;4841278;29;20453;-75
2022/04/16 01:21:25;;;;;;;10.00;8.27;;;;;;;6.45;100.00;97310.66;4842014;29;20473;-75
2022/04/16 01:23:51;;;;;;;9.20;6.60;;;;;;;6.62;100.00;97374.09;4826854;29;20456;-75
2022/04/16 01:26:18;;;;;;;7.90;6.47;;;;;;;6.65;100.00;97362.25;4843405;29;20603;-75
2022/04/16 01:28:45;;;;;;;7.27;6.17;;;;;;;6.42;100.00;97342.75;4841674;29;20988;-75
2022/04/16 01:31:11;;;;;;;5.93;5.33;;;;;;;6.48;100.00;97354.75;4843650;29;20430;-75
2022/04/16 01:33:38;;;;;;;6.80;5.23;;;;;;;6.22;100.00;97325.25;4844392;29;20477;-75
2022/04/16 01:36:05;;;;;;;5.80;5.00;;;;;;;6.45;100.00;97350.84;4842849;29;21016;-75
2022/04/16 01:38:32;;;;;;;5.27;4.77;;;;;;;6.50;100.00;97363.16;4816392;29;20437;-75
2022/04/16 01:40:59;;;;;;;6.13;4.67;;;;;;;5.62;100.00;97224.84;4825698;29;20557;-75
2022/04/16 01:43:29;;;;;;;5.93;3.97;;;;;;;6.43;100.00;97341.69;4830534;29;20509;-75
2022/04/16 01:45:56;;;;;;;4.27;3.87;;;;;;;6.55;100.00;97368.38;4840943;29;20465;-75
2022/04/16 01:48:27;;;;;;;4.43;4.10;;;;;;;6.25;100.00;97321.31;4842012;29;20457;-75
2022/04/16 01:50:54;;;;;;;4.57;4.13;;;;;;;6.25;100.00;97327.34;4843636;29;20426;-75
2022/04/16 01:53:21;;;;;;;4.17;3.77;;;;;;;6.18;100.00;97332.13;4842573;29;20461;-75
2022/04/16 01:55:49;;;;;;;4.90;3.93;;;;;;;6.42;100.00;97364.53;4843574;29;20472;-75
2022/04/16 01:58:16;;;;;;;5.67;5.10;;;;;;;6.45;100.00;97379.75;4842281;29;20922;-74
2022/04/16 02:00:43;;;;;;;4.80;4.40;;;;;;;6.35;100.00;97364.03;4841371;29;20485;-75
2022/04/16 02:03:10;;;;;;;4.27;3.80;;;;;;;6.36;100.00;97365.59;4827220;29;20448;-75
2022/04/16 02:05:37;;;;;;;3.77;3.43;;;;;;;5.93;100.00;97304.97;4841680;29;20477;-75
2022/04/16 02:08:06;;;;;;;3.97;3.57;;;;;;;6.01;100.00;97308.06;4841875;29;20480;-75
2022/04/16 02:10:34;;;;;;;4.23;3.77;;;;;;;5.97;100.00;97293.91;4841416;29;20505;-75
2022/04/16 02:13:00;;;;;;;4.17;3.77;;;;;;;6.29;100.00;97357.28;4842417;29;20791;-75
2022/04/16 02:15:28;;;;;;;4.70;4.03;;;;;;;6.22;100.00;97354.16;4842556;29;20457;-75
2022/04/16 02:17:55;;;;;;;4.57;3.90;;;;;;;6.28;100.00;97363.59;4842617;29;20982;-75
2022/04/16 02:20:23;;;;;;;5.10;3.87;;;;;;;6.14;100.00;97321.38;4826353;29;20863;-75
2022/04/16 02:22:52;;;;;;;5.03;4.53;;;;;;;6.34;100.00;97348.56;4827082;29;20480;-75
2022/04/16 02:25:20;;;;;;;5.20;4.60;;;;;;;6.41;100.00;97362.97;4842007;29;20456;-75
2022/04/16 02:27:46;;;;;;;4.67;4.20;;;;;;;6.31;100.00;97357.78;4841835;29;20532;-75
2022/04/16 02:30:15;;;;;;;4.10;3.80;;;;;;;6.07;100.00;97330.63;4840281;29;20448;-75
2022/04/16 02:32:44;;;;;;;4.10;3.70;;;;;;;6.20;100.00;97351.00;4824627;29;20441;-75
2022/04/16 02:35:13;;;;;;;4.60;4.20;;;;;;;5.80;100.00;97321.28;4839631;29;20529;-75
2022/04/16 02:37:40;;;;;;;4.37;3.90;;;;;;;6.19;100.00;97359.94;4840044;29;20452;-75
2022/04/16 02:40:08;;;;;;;4.67;3.40;;;;;;;6.04;100.00;97354.78;4840622;29;20509;-75
2022/04/16 02:42:39;;;;;;;4.40;4.00;;;;;;;6.09;100.00;97365.25;4840936;29;20556;-75
2022/04/16 02:47:54;;;;;;;4.97;4.47;;;;;;;5.91;100.00;97353.53;4841529;29;20452;-75
2022/04/16 02:50:24;;;;;;;7.40;6.07;;;;;;;5.70;100.00;97339.69;4842145;29;20460;-75
2022/04/16 02:52:52;;;;;;;7.37;5.97;;;;;;;5.53;100.00;97339.25;4841286;29;20539;-75
2022/04/16 02:55:19;;;;;;;8.30;7.50;;;;;;;5.84;100.00;97376.63;4841105;29;20517;-75
2022/04/16 02:57:45;;;;;;;8.37;6.67;;;;;;;5.37;100.00;97356.88;4841538;29;20537;-75
2022/04/16 03:00:14;;;;;;;8.97;7.63;;;;;;;5.33;100.00;97356.59;4842158;29;20480;-75
2022/04/16 03:02:41;;;;;;;9.37;8.47;;;;;;;5.32;100.00;97372.59;4841586;29;20483;-75
2022/04/16 03:05:09;;;;;;;10.73;7.83;;;;;;;5.25;100.00;97349.28;4827309;29;20477;-75
2022/04/16 03:07:39;;;;;;;9.47;8.33;;;;;;;5.48;100.00;97374.16;4830759;29;20830;-75
2022/04/16 03:10:10;;;;;;;11.63;8.07;;;;;;;5.41;100.00;97383.34;4847884;29;20493;-75
2022/04/16 03:12:45;;;;;;;9.93;8.27;;;;;;;5.24;100.00;97366.09;4835034;29;20460;-75
2022/04/16 03:18:00;;;;;;;8.67;7.03;;;;;;;5.29;100.00;97394.91;4846376;29;20515;-75
2022/04/16 03:20:29;;;;;;;14.90;12.07;;;;;;;5.11;100.00;97382.34;4830860;29;20477;-75
2022/04/16 03:22:57;;;;;;;12.27;10.00;;;;;;;5.21;100.00;97386.81;4846298;29;20551;-75
2022/04/16 03:25:25;;;;;;;15.57;10.33;;;;;;;5.07;100.00;97391.78;4846409;29;20910;-75
2022/04/16 03:27:52;;;;;;;14.90;9.10;;;;;;;4.78;100.00;97333.13;4847266;29;20524;-75
2022/04/16 03:30:18;;;;;;;17.37;11.30;;;;;;;4.78;100.00;97356.69;4831260;29;20452;-75
2022/04/16 03:32:48;;;;;;;14.77;10.10;;;;;;;5.07;100.00;97391.78;4828044;29;20532;-75
2022/04/16 03:35:18;;;;;;;13.53;10.40;;;;;;;5.17;100.00;97391.00;4833523;29;20531;-75
2022/04/16 03:37:45;;;;;;;15.57;10.10;;;;;;;5.18;100.00;97392.56;4847799;29;20957;-75
2022/04/16 03:40:12;;;;;;;15.77;10.77;;;;;;;5.15;100.00;97391.25;4846508;29;20463;-75
2022/04/16 03:42:52;;;;;;;14.47;10.20;;;;;;;4.76;100.00;97364.81;4846510;29;20529;-75
2022/04/16 03:45:24;;;;;;;13.47;9.80;;;;;;;4.86;100.00;97340.47;4845352;29;20464;-75
2022/04/16 03:47:52;;;;;;;17.17;12.20;;;;;;;4.96;100.00;97392.84;4846447;29;20987;-75
2022/04/16 03:50:20;;;;;;;14.53;10.27;;;;;;;5.05;100.00;97389.41;4844790;29;20912;-75
2022/04/16 03:52:48;;;;;;;14.70;10.77;;;;;;;4.95;100.00;97392.06;4846248;29;20428;-75
2022/04/16 04:00:55;;;;;;;13.97;10.60;;;;;;;5.06;100.00;97392.81;4845672;29;20465;-75
2022/04/16 04:03:22;;;;;;;15.93;9.30;;;;;;;5.05;100.00;97409.59;4845427;29;21002;-75
2022/04/16 04:05:53;;;;;;;11.60;8.40;;;;;;;5.01;100.00;97403.31;4828334;29;20908;-75
2022/04/16 04:08:21;;;;;;;12.77;9.50;;;;;;;4.82;100.00;97363.00;4843642;29;20460;-75
2022/04/16 04:10:48;;;;;;;13.17;9.77;;;;;;;4.90;100.00;97392.06;4845818;29;20465;-75
2022/04/16 04:13:16;;;;;;;8.83;7.80;;;;;;;4.69;100.00;97375.56;4845327;29;20441;-75
2022/04/16 04:15:43;;;;;;;11.00;8.63;;;;;;;4.54;100.00;97357.25;4845814;29;20471;-75
2022/04/16 04:18:10;;;;;;;12.07;10.33;;;;;;;4.55;100.00;97356.19;4845350;29;20542;-75
2022/04/16 04:20:37;;;;;;;9.07;7.73;;;;;;;4.91;100.00;97403.31;4846235;29;20445;-75
2022/04/16 04:23:04;;;;;;;13.50;7.57;;;;;;;4.78;100.00;97402.00;4845904;29;20476;-75
2022/04/16 04:25:31;;;;;;;9.30;7.10;;;;;;;4.64;100.00;97393.88;4846761;29;20503;-75
2022/04/16 04:27:58;;;;;;;8.50;6.80;;;;;;;4.78;100.00;97393.38;4845641;29;20450;-75
2022/04/16 04:30:25;;;;;;;8.40;7.60;;;;;;;4.87;100.00;97412.75;4844787;29;20885;-75
2022/04/16 04:32:51;;;;;;;9.50;7.13;;;;;;;4.99;100.00;97416.69;4844581;29;20529;-75
2022/04/16 04:35:18;;;;;;;9.73;7.90;;;;;;;4.59;100.00;97370.31;4844726;29;20440;-75
2022/04/16 04:37:45;;;;;;;8.77;7.33;;;;;;;4.87;100.00;97423.25;4827882;29;20929;-75
2022/04/16 04:40:12;;;;;;;10.60;8.63;;;;;;;4.72;100.00;97401.25;4844725;29;20479;-75
2022/04/16 04:42:38;;;;;;;12.27;7.30;;;;;;;4.70;100.00;97376.34;4842958;29;20474;-75
2022/04/16 04:45:08;;;;;;;12.20;9.07;;;;;;;4.95;100.00;97405.19;4842620;29;20548;-75
2022/04/16 04:47:34;;;;;;;9.67;7.87;;;;;;;4.94;100.00;97434.25;4842528;29;20444;-74
2022/04/16 04:50:01;;;;;;;10.13;8.70;;;;;;;4.74;100.00;97399.13;4827597;29;20951;-75
2022/04/16 04:52:29;;;;;;;10.30;7.90;;;;;;;4.64;100.00;97401.75;4842772;29;20446;-75
2022/04/16 04:54:58;;;;;;;10.00;7.67;;;;;;;4.61;100.00;97409.34;4824361;29;20442;-75
2022/04/16 04:57:25;;;;;;;10.60;7.53;;;;;;;4.93;100.00;97449.19;4827059;29;20568;-75
2022/04/16 04:59:52;;;;;;;11.10;8.23;;;;;;;4.76;100.00;97427.69;4842312;29;20498;-75
2022/04/16 05:02:19;;;;;;;11.17;7.77;;;;;;;4.80;100.00;97444.44;4843878;29;21002;-75
2022/04/16 05:04:46;;;;;;;10.00;7.03;;;;;;;4.73;100.00;97457.03;4827182;29;20455;-75
2022/04/16 05:07:13;;;;;;;8.80;6.97;;;;;;;4.41;100.00;97421.38;4842359;29;20967;-75
2022/04/16 05:09:39;;;;;;;11.30;7.50;;;;;;;4.53;100.00;97446.50;4842412;29;20528;-75
2022/04/16 05:12:06;;;;;;;11.40;7.40;;;;;;;4.57;100.00;97466.69;4843589;29;20868;-75
2022/04/16 05:14:33;;;;;;;9.93;6.90;;;;;;;4.64;100.00;97476.91;4843711;29;20543;-75
2022/04/16 05:17:00;;;;;;;9.40;7.70;;;;;;;4.62;100.00;97471.94;4842372;29;20484;-75
2022/04/16 05:19:27;;;;;;;14.47;9.63;;;;;;;4.17;100.00;97422.88;4828114;29;20447;-75
2022/04/16 05:21:53;;;;;;;10.20;7.90;;;;;;;4.30;100.00;97432.88;4842246;29;20499;-75
2022/04/16 05:24:20;;;;;;;12.77;9.40;;;;;;;4.43;100.00;97455.94;4823298;29;21117;-75
2022/04/16 05:26:47;;;;;;;11.33;8.37;;;;;;;4.28;100.00;97453.28;4838858;29;20487;-75
2022/04/16 05:29:14;;;;;;;10.17;7.97;;;;;;;4.19;100.00;97448.78;4842292;29;20544;-75
2022/04/16 05:31:41;;;;;;;10.20;8.13;;;;;;;4.50;100.00;97492.34;4841395;29;20502;-75
2022/04/16 05:34:20;;;;;;;10.60;7.37;;;;;;;4.10;100.00;97443.25;4843166;29;20434;-74
2022/04/16 05:36:49;;;;;;;10.87;7.80;;;;;;;4.30;100.00;97487.84;4842607;29;20472;-74
2022/04/16 05:39:16;;;;;;;9.80;8.00;;;;;;;4.33;100.00;97500.41;4842130;29;20544;-75
2022/04/16 05:41:44;;;;;;;8.57;7.17;;;;;;;4.30;100.00;97506.16;4841697;29;20548;-75
2022/04/16 05:44:10;;;;;;;8.37;6.97;;;;;;;4.01;100.00;97474.38;4823528;29;20449;-75
2022/04/16 05:46:37;;;;;;;7.77;6.07;;;;;;;4.20;100.00;97510.56;4842357;29;20477;-75
2022/04/16 05:49:04;;;;;;;10.37;7.30;;;;;;;4.12;100.00;97494.28;4841270;29;20497;-75
2022/04/16 05:51:31;;;;;;;8.73;7.00;;;;;;;3.85;100.00;97485.78;4842729;29;20465;-77
2022/04/16 05:54:00;;;;;;;12.17;6.43;;;;;;;3.73;100.00;97486.00;4842191;29;20459;-76
2022/04/16 05:56:28;;;;;;;7.60;5.20;;;;;;;3.79;100.00;97497.28;4841063;29;20841;-75
2022/04/16 05:58:54;;;;;;;6.17;5.43;;;;;;;3.89;100.00;97520.09;4842323;29;20457;-75
2022/04/16 06:01:21;;;;;;;9.53;6.70;;;;;;;3.85;100.00;97499.66;4841847;29;21060;-75
2022/04/16 06:03:48;;;;;;;7.80;6.00;;;;;;;3.94;100.00;97536.59;4842537;29;20522;-75
2022/04/16 06:06:14;;;;;;;7.03;6.07;;;;;;;3.93;100.00;97545.50;4823808;29;20510;-75
2022/04/16 06:08:41;;;;;;;7.00;6.30;;;;;;;3.90;100.00;97550.47;4824873;29;20484;-75
2022/04/16 06:11:08;;;;;;;8.13;5.77;;;;;;;3.94;100.00;97549.69;4842154;29;20453;-75
2022/04/16 06:13:35;;;;;;;6.13;5.27;;;;;;;3.67;100.00;97531.47;4842338;29;20521;-75
2022/04/16 06:16:02;;;;;;;6.70;5.77;;;;;;;3.66;100.00;97537.75;4842146;29;20561;-75
2022/04/16 06:18:29;;;;;;;8.63;5.50;;;;;;;3.61;100.00;97536.94;4842184;29;20449;-75
2022/04/16 06:20:56;;;;;;;7.83;7.03;;;;;;;3.68;100.00;97561.03;4842772;29;20445;-75
2022/04/16 06:23:23;;;;;;;6.80;5.53;;;;;;;3.78;100.00;97582.03;4841478;29;20536;-74
2022/04/16 06:25:49;;;;;;;7.30;5.87;;;;;;;3.55;100.00;97547.34;4842259;29;20506;-74
2022/04/16 06:28:16;;;;;;;6.23;5.63;;;;;;;3.64;100.00;97589.50;4844658;29;20825;-75
2022/04/16 06:30:43;;;;;;;11.47;7.67;;;;;;;3.74;100.00;97573.91;4845292;29;20446;-74
2022/04/16 06:33:10;;;;;;;12.93;7.10;;;;;;;3.81;100.00;97573.66;4843859;29;20457;-75
2022/04/16 06:35:37;;;;;;;8.47;6.37;;;;;;;3.63;100.00;97545.31;4842377;29;21092;-75
2022/04/16 06:38:04;;;;;;;8.33;6.13;;;;;;;3.76;100.00;97582.28;4842835;29;20962;-75
2022/04/16 06:40:30;;;;;;;7.63;6.30;;;;;;;3.67;100.00;97573.31;4843181;29;20452;-75
2022/04/16 06:42:57;;;;;;;7.37;6.53;;;;;;;3.80;100.00;97585.97;4840854;29;20635;-76
2022/04/16 06:45:24;;;;;;;8.50;6.97;;;;;;;3.46;100.00;97525.28;4841406;29;21039;-75
2022/04/16 06:47:50;;;;;;;7.90;6.43;;;;;;;3.76;100.00;97574.44;4826138;29;20855;-75
2022/04/16 06:50:17;;;;;;;8.90;6.40;;;;;;;3.60;100.00;97557.03;4841286;29;20525;-75
2022/04/16 06:52:45;;;;;;;8.67;6.80;;;;;;;3.61;100.00;97592.63;4841849;29;20436;-75
2022/04/16 06:55:12;;;;;;;9.40;7.40;;;;;;;3.85;100.00;97590.44;4826870;29;20488;-77
2022/04/16 06:57:39;;;;;;;8.53;5.93;;;;;;;3.52;100.00;97536.59;4857507;29;20452;-75
2022/04/16 07:00:07;;;;;;;8.57;7.50;;;;;;;3.86;100.00;97576.31;4825109;29;20449;-75
2022/04/16 07:02:34;;;;;;;8.60;7.40;;;;;;;3.93;100.00;97584.75;4841718;29;20469;-75
2022/04/16 07:05:02;;;;;;;6.50;5.90;;;;;;;3.71;100.00;97555.28;4844710;29;20536;-76
2022/04/16 07:07:29;;;;;;;5.67;4.80;;;;;;;3.96;100.00;97575.59;4841621;29;20460;-75
2022/04/16 07:09:57;;;;;;;5.90;5.40;;;;;;;4.07;100.00;97574.63;4842763;29;20445;-75
2022/04/16 07:12:23;;;;;;;6.23;5.33;;;;;;;4.01;100.00;97573.03;4826409;29;20444;-75
2022/04/16 07:14:50;;;;;;;5.00;4.50;;;;;;;4.00;100.00;97587.91;4841109;29;21031;-75
2022/04/16 07:17:20;;;;;;;5.27;4.43;;;;;;;4.33;100.00;97578.16;4827173;29;20468;-75
2022/04/16 07:19:47;;;;;;;4.97;4.20;;;;;;;3.92;100.00;97509.13;4826809;29;20540;-75
2022/04/16 07:22:14;;;;;;;4.80;4.40;;;;;;;4.39;100.00;97554.34;4840443;29;20457;-76
2022/04/16 07:24:42;;;;;;;5.80;5.20;;;;;;;4.58;100.00;97585.34;4825425;29;20480;-75
2022/04/16 07:27:09;;;;;;;6.60;4.43;;;;;;;4.33;100.00;97586.81;4842948;29;20460;-75
2022/04/16 07:29:36;;;;;;;6.40;4.83;;;;;;;4.17;100.00;97555.56;4825567;29;20494;-76
2022/04/16 07:32:03;;;;;;;7.63;4.50;;;;;;;3.70;100.00;97517.09;4840563;29;20436;-75
2022/04/16 07:34:30;;;;;;;7.10;3.93;;;;;;;4.44;100.00;97593.66;4841059;29;20444;-75
2022/04/16 07:36:57;;;;;;;3.90;3.60;;;;;;;4.52;100.00;97579.28;4840533;29;20499;-75
2022/04/16 07:39:24;;;;;;;4.57;4.17;;;;;;;4.63;100.00;97598.44;4840567;29;20548;-75
2022/04/16 07:41:51;;;;;;;4.43;4.03;;;;;;;4.42;100.00;97539.97;4840941;29;20458;-76
2022/04/16 07:44:18;;;;;;;3.77;3.13;;;;;;;3.89;100.00;97567.19;4824141;29;20480;-75
2022/04/16 07:46:46;;;;;;;4.63;3.87;;;;;;;4.19;100.00;97563.97;4840110;29;20985;-76
2022/04/16 07:49:13;;;;;;;4.30;3.77;;;;;;;4.50;100.00;97599.69;4810550;29;20894;-76
2022/04/16 07:51:40;;;;;;;4.40;4.00;;;;;;;4.11;100.00;97550.28;4821106;29;20449;-76
2022/04/16 07:54:08;;;;;;;5.60;3.83;;;;;;;4.09;100.00;97572.53;4836439;29;20535;-77
2022/04/16 07:56:35;;;;;;;3.30;3.03;;;;;;;4.25;100.00;97583.88;4843020;29;20525;-77
2022/04/16 07:59:01;;;;;;;3.73;3.30;;;;;;;4.20;100.00;97561.09;4842871;29;20436;-77
2022/04/16 08:01:28;;;;;;;3.57;3.27;;;;;;;4.30;100.00;97581.28;4842414;29;20542;-77
2022/04/16 08:03:55;;;;;;;5.03;3.87;;;;;;;4.22;100.00;97569.47;4842418;29;20480;-77
2022/04/16 08:06:22;;;;;;;4.57;3.60;;;;;;;4.39;100.00;97577.91;4842437;29;20467;-77
2022/04/16 08:08:49;;;;;;;4.33;4.03;;;;;;;4.47;100.00;97565.38;4842346;29;20449;-77
2022/04/16 08:11:16;;;;;;;6.20;3.97;;;;;;;4.85;100.00;97540.63;4832650;29;20511;-76
2022/04/16 08:13:42;;;;;;;4.43;4.03;;;;;;;4.83;100.00;97534.88;4848290;29;20480;-76
2022/04/16 08:16:09;;;;;;;7.10;3.37;;;;;;;5.23;100.00;97583.94;4842146;29;20590;-76
2022/04/16 08:18:36;;;;;;;7.37;3.90;;;;;;;4.77;100.00;97575.97;4843383;29;20449;-76
2022/04/16 08:21:03;;;;;;;4.90;3.30;;;;;;;4.81;100.00;97586.72;4841688;29;20456;-76
2022/04/16 08:23:30;;;;;;;4.87;3.70;;;;;;;4.12;100.00;97544.00;4841777;29;20485;-76
2022/04/16 08:25:56;;;;;;;4.67;4.17;;;;;;;4.51;100.00;97603.91;4841681;29;20551;-76
2022/04/16 08:28:23;;;;;;;4.10;3.70;;;;;;;4.70;100.00;97585.91;4843793;29;20810;-76
2022/04/16 08:30:51;;;;;;;4.43;3.40;;;;;;;5.05;100.00;97590.47;4842208;29;20449;-75
2022/04/16 08:33:18;;;;;;;3.83;3.47;;;;;;;5.99;100.00;97640.94;4841928;29;20473;-76
2022/04/16 08:35:45;;;;;;;4.50;3.73;;;;;;;5.96;100.00;97608.13;4857394;29;20456;-76
2022/04/16 08:38:13;;;;;;;4.03;3.30;;;;;;;5.64;100.00;97640.66;4842105;29;20452;-76
2022/04/16 08:40:40;;;;;;;4.80;3.70;;;;;;;5.69;100.00;97634.59;4842074;29;20444;-76
2022/04/16 08:43:12;;;;;;;3.47;3.13;;;;;;;5.66;100.00;97621.22;4826966;29;20840;-76
2022/04/16 08:45:40;;;;;;;3.60;3.30;;;;;;;5.63;100.00;97601.56;4841474;29;20477;-76
2022/04/16 08:48:08;;;;;;;3.37;3.07;;;;;;;6.19;98.51;97604.16;4844764;29;20494;-76
2022/04/16 08:50:36;;;;;;;3.73;3.33;;;;;;;6.77;96.01;97597.38;4842490;29;20470;-76
2022/04/16 08:53:03;;;;;;;4.50;3.37;;;;;;;6.89;91.07;97647.03;4841437;29;20512;-76
2022/04/16 08:55:30;;;;;;;3.70;3.40;;;;;;;6.77;90.35;97657.06;4842622;29;20460;-76
2022/04/16 08:57:57;;;;;;;5.13;3.90;;;;;;;6.91;88.59;97618.63;4840891;29;20541;-75
2022/04/16 09:00:24;;;;;;;5.30;3.93;;;;;;;7.16;85.71;97627.44;4841911;29;20801;-75
2022/04/16 09:02:53;;;;;;;7.93;5.07;;;;;;;7.06;84.81;97652.72;4840881;29;20571;-76
2022/04/16 09:05:20;;;;;;;4.77;3.80;;;;;;;7.41;85.59;97664.13;4840090;29;21098;-75
2022/04/16 09:07:49;;;;;;;4.23;3.77;;;;;;;6.82;84.35;97657.06;4825921;29;20509;-75
2022/04/16 09:10:17;;;;;;;4.87;3.63;;;;;;;6.65;85.68;97646.06;4840786;29;20487;-75
2022/04/16 09:12:45;;;;;;;3.03;2.83;;;;;;;6.08;81.51;97620.97;4841144;29;20445;-75
2022/04/16 09:15:13;;;;;;;5.20;3.50;;;;;;;6.25;79.79;97595.19;4842178;29;20440;-75
2022/04/16 09:17:40;;;;;;;5.30;3.80;;;;;;;6.69;81.25;97636.59;4826027;29;20445;-76
2022/04/16 09:20:16;;;;;;;3.70;3.40;;;;;;;6.53;82.49;97610.34;4824715;29;20897;-75
2022/04/16 09:22:49;;;;;;;5.80;4.70;;;;;;;6.70;81.18;97628.44;4822226;29;20496;-75
2022/04/16 09:25:18;;;;;;;5.10;3.20;;;;;;;7.08;83.43;97652.47;4825326;29;20512;-75
2022/04/16 09:27:50;;;;;;;4.37;3.97;;;;;;;6.98;83.62;97639.38;4841163;29;20452;-75
2022/04/16 09:30:31;;;;;;;4.67;4.27;;;;;;;7.51;79.84;97632.50;4841915;29;20536;-75
2022/04/16 09:33:00;;;;;;;3.47;3.17;;;;;;;7.62;79.26;97646.38;4825650;29;20449;-76
2022/04/16 09:35:35;;;;;;;4.40;3.90;;;;;;;6.85;79.44;97637.31;4840559;29;20488;-75
2022/04/16 09:38:14;;;;;;;7.10;4.47;;;;;;;7.22;78.55;97652.69;4840765;29;20453;-76
2022/04/16 09:40:45;;;;;;;4.80;3.47;;;;;;;7.79;81.19;97646.78;4842246;29;20520;-76
2022/04/16 09:43:11;;;;;;;3.37;3.00;;;;;;;7.06;76.63;97630.91;4841248;29;20862;-76
2022/04/16 09:45:40;;;;;;;4.30;4.00;;;;;;;7.27;75.23;97637.63;4840531;29;20468;-76
2022/04/16 09:48:11;;;;;;;2.93;2.63;;;;;;;7.67;74.34;97655.03;4840873;29;20449;-76
2022/04/16 09:50:41;;;;;;;3.50;2.77;;;;;;;6.75;69.96;97557.44;4840605;29;20883;-76
2022/04/16 09:53:09;;;;;;;2.83;2.53;;;;;;;7.15;69.78;97626.66;4840207;29;20976;-75
2022/04/16 09:55:36;;;;;;;3.60;3.13;;;;;;;7.36;70.14;97640.50;4840180;29;20470;-76
2022/04/16 09:58:06;;;;;;;3.93;2.10;;;;;;;7.80;62.68;97643.06;4825239;29;20453;-76
2022/04/16 10:00:37;;;;;;;2.37;2.17;;;;;;;8.04;59.02;97650.28;4840368;29;20466;-76
2022/04/16 10:03:26;;;;;;;2.30;2.10;;;;;;;7.96;61.64;97612.13;4840327;29;20463;-76
2022/04/16 10:05:57;;;;;;;2.57;2.00;;;;;;;7.98;63.27;97652.94;4840128;29;20466;-75
2022/04/16 10:08:25;;;;;;;2.60;1.60;;;;;;;8.34;61.35;97636.03;4841570;29;20925;-74
2022/04/16 10:10:55;;;;;;;2.07;1.70;;;;;;;8.15;58.81;97638.59;4841139;29;20497;-74
2022/04/16 10:13:23;;;;;;;3.07;2.07;;;;;;;7.85;57.44;97647.50;4840915;29;20570;-74
2022/04/16 10:16:12;;;;;;;2.40;2.20;;;;;;;7.71;54.29;97637.59;4828850;29;20467;-75
2022/04/16 10:18:40;;;;;;;2.87;2.40;;;;;;;7.95;56.63;97615.84;4841401;29;20454;-75
2022/04/16 10:21:34;;;;;;;3.00;2.80;;;;;;;8.61;58.24;97659.22;4825161;29;20532;-75
2022/04/16 10:24:01;;;;;;;5.17;2.97;;;;;;;8.34;56.99;97638.66;4827465;29;20481;-75
2022/04/16 10:26:37;;;;;;;2.20;2.00;;;;;;;8.67;54.12;97664.16;4839548;29;21031;-75
2022/04/16 10:29:04;;;;;;;2.43;2.00;;;;;;;8.62;54.20;97674.78;4824286;29;20601;-76
2022/04/16 10:31:33;;;;;;;2.77;2.13;;;;;;;8.52;52.96;97667.75;4824362;29;20966;-75
2022/04/16 10:34:11;;;;;;;2.30;2.10;;;;;;;8.51;52.39;97668.81;4839589;29;20454;-75
2022/04/16 10:36:48;;;;;;;2.10;1.93;;;;;;;8.84;53.37;97664.50;4808557;29;20469;-75
2022/04/16 10:39:19;;;;;;;2.33;2.03;;;;;;;8.73;52.42;97668.31;4839996;29;20437;-75
2022/04/16 10:42:03;;;;;;;2.80;1.70;;;;;;;8.82;56.27;97655.31;4823525;29;20982;-75
2022/04/16 10:44:43;;;;;;;2.07;1.87;;;;;;;8.72;53.23;97621.94;4838837;29;20469;-75
2022/04/16 10:49:56;;;;;;;2.63;2.43;;;;;;;8.56;52.73;97674.06;4885613;29;20530;-71
2022/04/16 10:52:23;;;;;;;2.20;2.00;;;;;;;8.49;52.68;97656.97;4887201;29;20439;-72
2022/04/16 10:55:00;;;;;;;2.83;2.63;;;;;;;8.70;53.10;97668.13;4887372;29;20443;-72
2022/04/16 10:57:27;;;;;;;4.10;2.90;;;;;;;8.79;52.56;97656.63;4871188;29;20464;-70
2022/04/16 10:59:59;;;;;;;2.30;2.10;;;;;;;9.24;52.98;97678.28;4860398;29;20480;-70
2022/04/16 11:02:46;;;;;;;2.67;2.47;;;;;;;8.73;52.38;97672.81;4860955;29;20957;-71
2022/04/16 11:05:12;;;;;;;3.10;2.20;;;;;;;9.08;52.34;97684.78;4860205;29;20524;-71
2022/04/16 11:07:41;;;;;;;3.13;2.83;;;;;;;8.80;52.44;97673.25;4862474;29;20482;-72
2022/04/16 11:10:10;;;;;;;2.97;2.77;;;;;;;8.78;52.81;97683.31;4865162;29;20440;-71
2022/04/16 11:12:38;;;;;;;3.40;3.10;;;;;;;9.14;52.34;97681.03;4862495;29;20441;-71
2022/04/16 11:15:19;;;;;;;3.03;2.70;;;;;;;9.61;51.81;97656.38;4862263;29;20441;-71
2022/04/16 11:17:46;;;;;;;2.00;1.90;;;;;;;9.49;50.97;97653.41;4849036;29;20488;-72
2022/04/16 11:20:12;;;;;;;5.53;2.40;;;;;;;9.31;49.29;97646.25;4872261;29;20443;-72
2022/04/16 11:22:39;;;;;;;3.43;2.00;;;;;;;9.38;48.01;97679.16;4852959;29;20449;-71
2022/04/16 11:25:07;;;;;;;2.40;2.20;;;;;;;9.30;47.64;97674.50;4852014;29;20492;-71
2022/04/16 11:35:59;;;;;;;4.43;2.80;;;;;;;9.68;46.80;97677.94;4874005;29;20534;-71
2022/04/16 11:38:35;;;;;;;1.50;1.40;;;;;;;9.85;47.06;97680.06;4868119;29;20487;-71
2022/04/16 11:41:05;;;;;;;1.90;1.80;;;;;;;9.71;46.17;97658.88;4848821;29;20473;-71
2022/04/16 11:43:33;;;;;;;1.93;1.53;;;;;;;10.07;46.17;97679.47;4869420;29;20476;-71
2022/04/16 11:46:02;;;;;;;2.07;1.87;;;;;;;10.13;45.92;97673.00;4855156;29;20482;-71
2022/04/16 11:48:31;;;;;;;3.73;2.10;;;;;;;10.05;47.19;97658.59;4871798;29;20487;-71
2022/04/16 11:50:58;;;;;;;1.30;1.20;;;;;;;9.89;46.81;97677.63;4868149;29;20457;-70
2022/04/16 11:53:24;;;;;;;2.17;2.07;;;;;;;10.11;47.37;97666.44;4865814;29;20437;-70
2022/04/16 11:56:00;;;;;;;2.67;2.47;;;;;;;10.14;44.80;97684.34;4868780;29;20450;-70
2022/04/16 11:58:29;;;;;;;3.00;1.80;;;;;;;10.67;44.22;97676.84;4869450;29;20456;-71
2022/04/16 12:00:56;;;;;;;2.47;2.27;;;;;;;10.69;44.65;97664.13;4870096;29;20432;-71